X  CloseMetar Aviation Weather Data     EGGD Bristol International

Temperature

5°C Temperature

3°C Dewpoint

87% Humidity



Wind

19 KM/H

12 MPH

 5 M/S

10 KTS



210°
South South
West
Current Conditions

Clear Clear
Pressure 995.92 (hPa) - 29.41 (in)
Visibility 6.2 (mi) - 10 (km)
Airport
Airport-code EGGD

Location Bristol International 9 (mi)

Metar:
EGGD 152150Z AUTO 21010KT 9999 NCD 05/03 Q0996

Time: 2019-12-15 21:50